createdAt,value
2019-04-29T00:00:51.386Z,9.87
2019-04-29T00:06:17.085Z,9.88
2019-04-29T00:11:41.451Z,9.88
2019-04-29T00:17:20.224Z,9.88
2019-04-29T00:22:42.491Z,9.86
2019-04-29T00:28:07.347Z,9.84
2019-04-29T00:33:32.083Z,9.80
2019-04-29T00:39:14.327Z,9.79
2019-04-29T00:44:38.104Z,9.77
2019-04-29T00:50:02.213Z,9.78
2019-04-29T00:55:28.870Z,9.77
2019-04-29T01:00:53.538Z,9.75
2019-04-29T01:06:18.294Z,9.77
2019-04-29T01:11:43.659Z,9.73
2019-04-29T01:17:08.299Z,9.70
2019-04-29T01:22:32.851Z,9.65
2019-04-29T01:28:02.293Z,9.63
2019-04-29T01:33:26.244Z,9.55
2019-04-29T01:38:52.615Z,9.43
2019-04-29T01:44:16.919Z,9.29
2019-04-29T01:49:41.910Z,9.12
2019-04-29T01:55:06.789Z,8.96
2019-04-29T02:00:31.175Z,8.84
2019-04-29T02:05:55.989Z,8.73
2019-04-29T02:11:20.596Z,8.64
2019-04-29T02:16:45.716Z,8.59
2019-04-29T02:22:21.435Z,8.56
2019-04-29T02:27:45.590Z,8.53
2019-04-29T02:33:10.488Z,8.51
2019-04-29T02:38:48.292Z,8.53
2019-04-29T02:44:13.361Z,8.53
2019-04-29T02:49:37.171Z,8.54
2019-04-29T02:55:02.927Z,8.55
2019-04-29T03:00:36.503Z,8.53
2019-04-29T03:06:01.548Z,8.53
2019-04-29T03:11:26.628Z,8.50
2019-04-29T03:16:50.512Z,8.49
2019-04-29T03:22:15.096Z,8.48
2019-04-29T03:27:39.038Z,8.49
2019-04-29T03:33:03.237Z,8.47
2019-04-29T03:38:26.936Z,8.55
2019-04-29T03:43:52.766Z,8.59
2019-04-29T03:49:16.357Z,8.63
2019-04-29T03:54:40.061Z,8.63
2019-04-29T04:00:04.861Z,8.68
2019-04-29T04:05:38.869Z,8.70
2019-04-29T04:11:02.653Z,8.73
2019-04-29T04:16:32.871Z,8.79
2019-04-29T04:21:57.004Z,8.85
2019-04-29T04:27:21.725Z,8.85
2019-04-29T04:32:46.525Z,8.96
2019-04-29T04:38:11.396Z,8.98
2019-04-29T04:43:35.424Z,9.03
2019-04-29T04:48:59.200Z,8.97
2019-04-29T04:54:23.067Z,9.00
2019-04-29T04:59:47.821Z,9.01
2019-04-29T05:05:13.460Z,8.98
2019-04-29T05:10:37.859Z,8.98
2019-04-29T05:16:01.698Z,9.00
2019-04-29T05:21:25.603Z,9.11
2019-04-29T05:26:50.265Z,9.20
2019-04-29T05:32:14.228Z,9.27
2019-04-29T05:38:02.213Z,9.31
2019-04-29T05:43:34.645Z,9.32
2019-04-29T05:48:58.371Z,9.33
2019-04-29T05:54:22.842Z,9.38
2019-04-29T05:59:49.254Z,9.47
2019-04-29T06:05:13.327Z,9.49
2019-04-29T06:10:37.262Z,9.44
2019-04-29T06:16:01.834Z,9.43
2019-04-29T06:21:26.470Z,9.42
2019-04-29T06:26:51.691Z,9.42
2019-04-29T06:32:20.179Z,9.47
2019-04-29T06:37:41.934Z,9.48
2019-04-29T06:43:06.588Z,9.52
2019-04-29T06:48:30.034Z,9.62
2019-04-29T06:53:54.728Z,9.62
2019-04-29T06:59:18.409Z,9.70
2019-04-29T07:04:42.843Z,9.63
2019-04-29T07:10:06.893Z,9.54
2019-04-29T07:15:30.571Z,9.55
2019-04-29T07:20:54.563Z,9.53
2019-04-29T07:26:18.237Z,9.52
2019-04-29T07:31:41.934Z,9.49
2019-04-29T07:37:07.114Z,9.47
2019-04-29T07:42:33.236Z,9.55
2019-04-29T07:47:57.163Z,9.61
2019-04-29T07:53:34.325Z,9.71
2019-04-29T07:58:48.591Z,9.92
2019-04-29T08:04:13.499Z,10.08
2019-04-29T08:09:39.804Z,9.93
2019-04-29T08:15:07.807Z,9.78
2019-04-29T08:20:31.075Z,9.75
2019-04-29T08:25:57.396Z,9.79
2019-04-29T08:31:22.254Z,9.89
2019-04-29T08:36:46.886Z,9.90
2019-04-29T08:42:14.421Z,9.91
2019-04-29T08:47:41.021Z,10.06
2019-04-29T08:53:05.516Z,10.44
2019-04-29T08:58:30.202Z,10.76
2019-04-29T09:03:58.051Z,11.15
2019-04-29T09:09:29.080Z,11.94
2019-04-29T09:14:46.763Z,11.55
2019-04-29T09:20:11.320Z,11.43
2019-04-29T09:26:02.459Z,11.43
2019-04-29T09:31:19.327Z,11.23
2019-04-29T09:36:48.427Z,11.19
2019-04-29T09:42:18.209Z,11.29
2019-04-29T09:47:42.135Z,11.32
2019-04-29T09:53:06.612Z,11.94
2019-04-29T09:58:30.958Z,12.43
2019-04-29T10:04:15.882Z,12.56
2019-04-29T10:09:39.725Z,12.20
2019-04-29T10:15:04.646Z,11.91
2019-04-29T10:20:58.635Z,11.78
2019-04-29T10:26:22.704Z,11.58
2019-04-29T10:31:47.078Z,11.72
2019-04-29T10:37:12.080Z,12.14
2019-04-29T10:42:49.184Z,12.19
2019-04-29T10:48:30.631Z,12.13
2019-04-29T10:53:54.594Z,12.17
2019-04-29T10:59:18.549Z,12.32
2019-04-29T11:04:42.370Z,12.41
2019-04-29T11:10:25.394Z,12.65
2019-04-29T11:15:49.531Z,12.72
2019-04-29T11:21:10.990Z,13.01
2019-04-29T11:26:40.493Z,13.09
2019-04-29T11:32:07.545Z,12.95
2019-04-29T11:37:31.583Z,12.90
2019-04-29T11:42:55.336Z,13.07
2019-04-29T11:48:19.715Z,12.80
2019-04-29T11:53:44.178Z,12.52
2019-04-29T11:59:26.917Z,12.52
2019-04-29T12:04:54.688Z,12.90
2019-04-29T12:10:20.180Z,13.27
2019-04-29T12:15:55.878Z,13.79
2019-04-29T12:21:30.961Z,14.13
2019-04-29T12:26:54.961Z,14.32
2019-04-29T12:32:27.201Z,14.73
2019-04-29T12:38:11.263Z,15.11
2019-04-29T12:43:59.123Z,14.97
2019-04-29T12:49:21.693Z,15.27
2019-04-29T12:54:47.766Z,16.55
2019-04-29T13:00:16.247Z,17.01
2019-04-29T13:06:23.651Z,17.72
2019-04-29T13:11:48.815Z,17.78
2019-04-29T13:17:34.150Z,17.92
2019-04-29T13:22:59.008Z,18.53
2019-04-29T13:28:30.210Z,18.56
2019-04-29T13:33:50.893Z,18.10
2019-04-29T13:39:16.471Z,17.70
2019-04-29T13:44:50.386Z,17.49
2019-04-29T13:50:38.182Z,17.66
2019-04-29T13:55:49.655Z,17.78
2019-04-29T14:01:57.840Z,17.77
2019-04-29T14:07:04.781Z,17.49
2019-04-29T14:17:55.104Z,18.50
2019-04-29T14:23:20.248Z,18.62
2019-04-29T14:28:44.737Z,18.93
2019-04-29T14:34:19.872Z,19.33
2019-04-29T14:39:41.456Z,19.66
2019-04-29T14:45:31.434Z,19.94
2019-04-29T14:50:56.135Z,19.57
2019-04-29T14:56:21.128Z,19.33
2019-04-29T15:02:01.941Z,19.20
2019-04-29T15:07:29.179Z,19.21
2019-04-29T15:13:06.681Z,19.80
2019-04-29T15:18:50.345Z,22.04
2019-04-29T15:24:13.083Z,22.04
2019-04-29T15:29:36.733Z,22.88
2019-04-29T15:35:00.476Z,22.33
2019-04-29T15:40:26.308Z,21.55
2019-04-29T15:45:49.512Z,20.93
2019-04-29T15:51:14.932Z,19.81
2019-04-29T15:56:40.221Z,20.18
2019-04-29T16:02:06.558Z,21.01
2019-04-29T16:07:55.707Z,20.92
2019-04-29T16:13:22.395Z,21.40
2019-04-29T16:18:44.743Z,21.35
2019-04-29T16:24:25.879Z,20.69
2019-04-29T16:29:35.737Z,20.98
2019-04-29T16:35:00.399Z,20.99
2019-04-29T16:40:26.110Z,20.49
2019-04-29T16:46:04.434Z,21.00
2019-04-29T16:51:28.298Z,20.41
2019-04-29T16:56:53.415Z,20.16
2019-04-29T17:02:19.577Z,18.82
2019-04-29T17:07:43.940Z,17.66
2019-04-29T17:13:09.192Z,17.24
2019-04-29T17:18:33.163Z,17.00
2019-04-29T17:23:57.058Z,16.78
2019-04-29T17:29:48.634Z,16.69
2019-04-29T17:35:02.701Z,16.55
2019-04-29T17:40:27.873Z,15.62
2019-04-29T17:46:14.529Z,15.09
2019-04-29T17:51:38.641Z,14.79
2019-04-29T17:57:26.431Z,14.49
2019-04-29T18:03:00.890Z,14.15
2019-04-29T18:08:35.313Z,13.90
2019-04-29T18:13:59.195Z,13.63
2019-04-29T18:19:36.187Z,13.33
2019-04-29T18:25:09.885Z,13.03
2019-04-29T18:30:37.861Z,12.68
2019-04-29T18:36:04.460Z,12.55
2019-04-29T18:41:28.678Z,12.34
2019-04-29T18:46:53.842Z,11.92
2019-04-29T18:52:25.380Z,11.65
2019-04-29T18:57:43.553Z,11.37
2019-04-29T19:03:07.293Z,11.09
2019-04-29T19:08:32.151Z,10.97
2019-04-29T19:13:55.829Z,10.86
2019-04-29T19:19:20.457Z,10.61
2019-04-29T19:24:46.255Z,10.48
2019-04-29T19:30:16.047Z,10.34
2019-04-29T19:35:38.630Z,10.00
2019-04-29T19:41:01.103Z,9.82
2019-04-29T19:46:36.975Z,9.73
2019-04-29T19:51:51.641Z,9.61
2019-04-29T19:57:16.261Z,9.54
2019-04-29T20:02:48.390Z,9.42
2019-04-29T20:08:07.639Z,9.32
2019-04-29T20:13:34.442Z,9.17
2019-04-29T20:19:27.371Z,9.01
2019-04-29T20:24:50.933Z,8.85
2019-04-29T20:30:20.487Z,8.78
2019-04-29T20:35:45.460Z,8.67
2019-04-29T20:41:08.304Z,8.59
2019-04-29T20:46:43.314Z,8.36
2019-04-29T20:52:08.958Z,8.30
2019-04-29T20:57:35.951Z,8.30
2019-04-29T21:03:03.976Z,8.15
2019-04-29T21:08:26.427Z,7.96
2019-04-29T21:13:57.710Z,7.93
2019-04-29T21:19:21.618Z,7.93
2019-04-29T21:24:49.459Z,7.92
2019-04-29T21:30:12.529Z,7.74
2019-04-29T21:35:49.593Z,7.55
2019-04-29T21:41:20.008Z,7.38
2019-04-29T21:46:40.955Z,7.32
2019-04-29T21:52:05.774Z,7.28
2019-04-29T21:57:30.491Z,7.27
2019-04-29T22:02:55.397Z,7.23
2019-04-29T22:08:25.092Z,7.08
2019-04-29T22:13:45.884Z,7.03
2019-04-29T22:19:10.105Z,6.97
2019-04-29T22:24:35.954Z,6.89
2019-04-29T22:30:05.641Z,6.90
2019-04-29T22:35:32.841Z,6.85
2019-04-29T22:40:57.484Z,6.80
2019-04-29T22:46:22.188Z,6.66
2019-04-29T22:51:49.810Z,6.54
2019-04-29T22:57:11.190Z,6.41
2019-04-29T23:02:34.743Z,6.41
2019-04-29T23:08:00.390Z,6.34
2019-04-29T23:13:26.798Z,6.22
2019-04-29T23:18:51.613Z,6.15
2019-04-29T23:24:38.285Z,6.09
2019-04-29T23:30:02.554Z,6.06
2019-04-29T23:35:26.286Z,5.90
2019-04-29T23:40:54.444Z,5.83
2019-04-29T23:46:16.526Z,5.78
2019-04-29T23:51:40.586Z,5.70
2019-04-29T23:57:25.490Z,5.60
